sensor_id;sensor_type;location;lat;lon;timestamp;P1;durP1;ratioP1;P2;durP2;ratioP2
71856;SDS011;63344;46.980;28.882;2023-08-06T00:00:00;10.88;;;7.45;;
71856;SDS011;63344;46.980;28.882;2023-08-06T00:02:27;10.25;;;7.32;;
71856;SDS011;63344;46.980;28.882;2023-08-06T00:04:57;10.63;;;7.60;;
71856;SDS011;63344;46.980;28.882;2023-08-06T00:07:29;12.50;;;7.80;;
71856;SDS011;63344;46.980;28.882;2023-08-06T00:09:57;12.43;;;7.20;;
71856;SDS011;63344;46.980;28.882;2023-08-06T00:12:24;13.73;;;7.45;;
71856;SDS011;63344;46.980;28.882;2023-08-06T00:14:53;11.13;;;7.47;;
71856;SDS011;63344;46.980;28.882;2023-08-06T00:17:41;14.25;;;8.25;;
71856;SDS011;63344;46.980;28.882;2023-08-06T00:23:26;10.48;;;7.10;;
71856;SDS011;63344;46.980;28.882;2023-08-06T00:26:17;10.65;;;7.15;;
71856;SDS011;63344;46.980;28.882;2023-08-06T00:28:50;12.30;;;7.32;;
71856;SDS011;63344;46.980;28.882;2023-08-06T00:31:21;12.88;;;7.53;;
71856;SDS011;63344;46.980;28.882;2023-08-06T00:33:49;10.25;;;6.85;;
71856;SDS011;63344;46.980;28.882;2023-08-06T00:36:22;16.20;;;7.63;;
71856;SDS011;63344;46.980;28.882;2023-08-06T00:38:49;8.90;;;7.10;;
71856;SDS011;63344;46.980;28.882;2023-08-06T00:41:17;12.00;;;8.32;;
71856;SDS011;63344;46.980;28.882;2023-08-06T00:43:48;10.73;;;7.35;;
71856;SDS011;63344;46.980;28.882;2023-08-06T00:46:17;14.45;;;7.50;;
71856;SDS011;63344;46.980;28.882;2023-08-06T00:48:45;10.60;;;6.85;;
71856;SDS011;63344;46.980;28.882;2023-08-06T00:51:18;11.27;;;7.50;;
71856;SDS011;63344;46.980;28.882;2023-08-06T00:53:46;9.30;;;7.32;;
71856;SDS011;63344;46.980;28.882;2023-08-06T00:56:20;12.43;;;7.55;;
71856;SDS011;63344;46.980;28.882;2023-08-06T00:58:49;11.68;;;7.75;;
71856;SDS011;63344;46.980;28.882;2023-08-06T01:04:12;10.00;;;7.38;;
71856;SDS011;63344;46.980;28.882;2023-08-06T01:06:45;11.60;;;7.90;;
71856;SDS011;63344;46.980;28.882;2023-08-06T01:10:08;16.05;;;7.45;;
71856;SDS011;63344;46.980;28.882;2023-08-06T01:15:12;13.98;;;7.40;;
71856;SDS011;63344;46.980;28.882;2023-08-06T01:17:45;11.90;;;7.60;;
71856;SDS011;63344;46.980;28.882;2023-08-06T01:20:13;11.30;;;7.57;;
71856;SDS011;63344;46.980;28.882;2023-08-06T01:22:41;15.68;;;8.40;;
71856;SDS011;63344;46.980;28.882;2023-08-06T01:25:24;11.52;;;8.02;;
71856;SDS011;63344;46.980;28.882;2023-08-06T01:28:21;11.98;;;7.70;;
71856;SDS011;63344;46.980;28.882;2023-08-06T01:31:10;15.90;;;8.30;;
71856;SDS011;63344;46.980;28.882;2023-08-06T01:33:45;16.88;;;8.70;;
71856;SDS011;63344;46.980;28.882;2023-08-06T01:36:25;21.00;;;10.43;;
71856;SDS011;63344;46.980;28.882;2023-08-06T01:38:56;20.77;;;9.82;;
71856;SDS011;63344;46.980;28.882;2023-08-06T01:41:24;14.25;;;9.00;;
71856;SDS011;63344;46.980;28.882;2023-08-06T01:43:54;14.95;;;9.18;;
71856;SDS011;63344;46.980;28.882;2023-08-06T01:46:23;12.70;;;8.57;;
71856;SDS011;63344;46.980;28.882;2023-08-06T01:48:51;17.33;;;9.38;;
71856;SDS011;63344;46.980;28.882;2023-08-06T01:51:18;16.33;;;9.95;;
71856;SDS011;63344;46.980;28.882;2023-08-06T01:53:47;16.08;;;9.23;;
71856;SDS011;63344;46.980;28.882;2023-08-06T01:56:17;17.67;;;9.27;;
71856;SDS011;63344;46.980;28.882;2023-08-06T01:58:50;16.10;;;9.40;;
71856;SDS011;63344;46.980;28.882;2023-08-06T02:01:17;13.02;;;9.43;;
71856;SDS011;63344;46.980;28.882;2023-08-06T02:03:46;15.90;;;9.50;;
71856;SDS011;63344;46.980;28.882;2023-08-06T02:06:14;14.75;;;9.35;;
71856;SDS011;63344;46.980;28.882;2023-08-06T02:08:44;15.00;;;9.80;;
71856;SDS011;63344;46.980;28.882;2023-08-06T02:11:15;18.65;;;9.95;;
71856;SDS011;63344;46.980;28.882;2023-08-06T02:13:45;14.30;;;9.40;;
71856;SDS011;63344;46.980;28.882;2023-08-06T02:16:15;15.15;;;9.32;;
71856;SDS011;63344;46.980;28.882;2023-08-06T02:18:51;11.85;;;8.98;;
71856;SDS011;63344;46.980;28.882;2023-08-06T02:21:19;16.65;;;9.45;;
71856;SDS011;63344;46.980;28.882;2023-08-06T02:23:47;15.77;;;9.32;;
71856;SDS011;63344;46.980;28.882;2023-08-06T02:26:14;15.20;;;9.82;;
71856;SDS011;63344;46.980;28.882;2023-08-06T02:28:43;15.35;;;9.57;;
71856;SDS011;63344;46.980;28.882;2023-08-06T02:31:10;12.20;;;9.48;;
71856;SDS011;63344;46.980;28.882;2023-08-06T02:33:40;15.35;;;8.90;;
71856;SDS011;63344;46.980;28.882;2023-08-06T02:36:08;17.30;;;9.80;;
71856;SDS011;63344;46.980;28.882;2023-08-06T02:38:36;14.20;;;8.88;;
71856;SDS011;63344;46.980;28.882;2023-08-06T02:41:05;16.70;;;10.80;;
71856;SDS011;63344;46.980;28.882;2023-08-06T02:43:33;14.43;;;9.75;;
71856;SDS011;63344;46.980;28.882;2023-08-06T02:46:00;16.55;;;9.38;;
71856;SDS011;63344;46.980;28.882;2023-08-06T02:48:28;16.60;;;10.55;;
71856;SDS011;63344;46.980;28.882;2023-08-06T02:50:59;11.75;;;9.45;;
71856;SDS011;63344;46.980;28.882;2023-08-06T02:53:31;15.55;;;9.40;;
71856;SDS011;63344;46.980;28.882;2023-08-06T02:55:58;11.30;;;8.98;;
71856;SDS011;63344;46.980;28.882;2023-08-06T02:58:26;13.85;;;8.75;;
71856;SDS011;63344;46.980;28.882;2023-08-06T03:01:11;16.30;;;9.05;;
71856;SDS011;63344;46.980;28.882;2023-08-06T03:06:06;14.77;;;9.00;;
71856;SDS011;63344;46.980;28.882;2023-08-06T03:08:35;13.55;;;9.00;;
71856;SDS011;63344;46.980;28.882;2023-08-06T03:11:20;12.88;;;10.57;;
71856;SDS011;63344;46.980;28.882;2023-08-06T03:13:51;12.43;;;8.68;;
71856;SDS011;63344;46.980;28.882;2023-08-06T03:16:21;15.38;;;8.43;;
71856;SDS011;63344;46.980;28.882;2023-08-06T03:18:49;16.45;;;9.10;;
71856;SDS011;63344;46.980;28.882;2023-08-06T03:21:16;17.20;;;8.25;;
71856;SDS011;63344;46.980;28.882;2023-08-06T03:23:46;12.50;;;8.68;;
71856;SDS011;63344;46.980;28.882;2023-08-06T03:26:16;20.05;;;9.05;;
71856;SDS011;63344;46.980;28.882;2023-08-06T03:28:44;15.25;;;8.50;;
71856;SDS011;63344;46.980;28.882;2023-08-06T03:31:12;14.32;;;7.72;;
71856;SDS011;63344;46.980;28.882;2023-08-06T03:33:44;13.20;;;7.88;;
71856;SDS011;63344;46.980;28.882;2023-08-06T03:36:11;15.20;;;7.95;;
71856;SDS011;63344;46.980;28.882;2023-08-06T03:38:38;12.68;;;7.97;;
71856;SDS011;63344;46.980;28.882;2023-08-06T03:41:06;12.45;;;8.15;;
71856;SDS011;63344;46.980;28.882;2023-08-06T03:43:44;13.45;;;8.38;;
71856;SDS011;63344;46.980;28.882;2023-08-06T03:46:14;10.60;;;7.68;;
71856;SDS011;63344;46.980;28.882;2023-08-06T03:48:45;10.23;;;7.32;;
71856;SDS011;63344;46.980;28.882;2023-08-06T03:51:17;11.90;;;7.22;;
71856;SDS011;63344;46.980;28.882;2023-08-06T03:53:54;10.05;;;6.95;;
71856;SDS011;63344;46.980;28.882;2023-08-06T03:56:23;11.23;;;7.53;;
71856;SDS011;63344;46.980;28.882;2023-08-06T03:58:53;11.40;;;8.32;;
71856;SDS011;63344;46.980;28.882;2023-08-06T04:01:22;12.77;;;8.80;;
71856;SDS011;63344;46.980;28.882;2023-08-06T04:04:08;12.07;;;7.75;;
71856;SDS011;63344;46.980;28.882;2023-08-06T04:06:51;10.80;;;7.70;;
71856;SDS011;63344;46.980;28.882;2023-08-06T04:10:20;12.30;;;8.30;;
71856;SDS011;63344;46.980;28.882;2023-08-06T04:13:13;10.40;;;7.75;;
71856;SDS011;63344;46.980;28.882;2023-08-06T04:16:03;11.30;;;7.20;;
71856;SDS011;63344;46.980;28.882;2023-08-06T04:18:49;11.63;;;8.75;;
71856;SDS011;63344;46.980;28.882;2023-08-06T04:21:40;15.52;;;8.40;;
71856;SDS011;63344;46.980;28.882;2023-08-06T04:24:27;11.00;;;7.70;;
71856;SDS011;63344;46.980;28.882;2023-08-06T04:27:11;11.20;;;7.30;;
71856;SDS011;63344;46.980;28.882;2023-08-06T04:29:55;13.20;;;7.30;;
71856;SDS011;63344;46.980;28.882;2023-08-06T04:32:39;15.18;;;7.82;;
71856;SDS011;63344;46.980;28.882;2023-08-06T04:35:29;9.73;;;7.45;;
71856;SDS011;63344;46.980;28.882;2023-08-06T04:38:14;10.00;;;7.65;;
71856;SDS011;63344;46.980;28.882;2023-08-06T04:41:16;12.27;;;7.68;;
71856;SDS011;63344;46.980;28.882;2023-08-06T04:44:02;14.30;;;8.18;;
71856;SDS011;63344;46.980;28.882;2023-08-06T04:47:23;12.65;;;8.07;;
71856;SDS011;63344;46.980;28.882;2023-08-06T04:50:09;13.60;;;9.18;;
71856;SDS011;63344;46.980;28.882;2023-08-06T04:52:50;11.27;;;9.18;;
71856;SDS011;63344;46.980;28.882;2023-08-06T04:55:56;11.65;;;9.10;;
71856;SDS011;63344;46.980;28.882;2023-08-06T04:58:57;15.23;;;9.05;;
71856;SDS011;63344;46.980;28.882;2023-08-06T05:01:55;14.73;;;9.18;;
71856;SDS011;63344;46.980;28.882;2023-08-06T05:04:52;11.25;;;8.52;;
71856;SDS011;63344;46.980;28.882;2023-08-06T05:07:41;12.02;;;8.18;;
71856;SDS011;63344;46.980;28.882;2023-08-06T05:10:34;14.25;;;9.10;;
71856;SDS011;63344;46.980;28.882;2023-08-06T05:13:36;13.00;;;8.57;;
71856;SDS011;63344;46.980;28.882;2023-08-06T05:16:33;12.10;;;9.30;;
71856;SDS011;63344;46.980;28.882;2023-08-06T05:19:16;11.68;;;8.90;;
71856;SDS011;63344;46.980;28.882;2023-08-06T05:22:02;13.63;;;9.23;;
71856;SDS011;63344;46.980;28.882;2023-08-06T05:28:27;15.02;;;9.40;;
71856;SDS011;63344;46.980;28.882;2023-08-06T05:31:33;13.73;;;9.32;;
71856;SDS011;63344;46.980;28.882;2023-08-06T05:34:12;14.05;;;8.68;;
71856;SDS011;63344;46.980;28.882;2023-08-06T05:36:58;9.65;;;8.35;;
71856;SDS011;63344;46.980;28.882;2023-08-06T05:39:40;12.90;;;9.25;;
71856;SDS011;63344;46.980;28.882;2023-08-06T05:42:24;14.18;;;9.05;;
71856;SDS011;63344;46.980;28.882;2023-08-06T05:45:09;13.10;;;8.50;;
71856;SDS011;63344;46.980;28.882;2023-08-06T05:47:52;14.05;;;8.23;;
71856;SDS011;63344;46.980;28.882;2023-08-06T05:50:39;11.90;;;8.38;;
71856;SDS011;63344;46.980;28.882;2023-08-06T05:53:22;15.18;;;9.02;;
71856;SDS011;63344;46.980;28.882;2023-08-06T05:56:06;13.00;;;9.43;;
71856;SDS011;63344;46.980;28.882;2023-08-06T05:58:49;12.85;;;8.68;;
71856;SDS011;63344;46.980;28.882;2023-08-06T06:01:37;14.57;;;8.88;;
71856;SDS011;63344;46.980;28.882;2023-08-06T06:04:24;13.13;;;7.97;;
71856;SDS011;63344;46.980;28.882;2023-08-06T06:07:01;16.17;;;9.63;;
71856;SDS011;63344;46.980;28.882;2023-08-06T06:13:08;15.98;;;9.90;;
71856;SDS011;63344;46.980;28.882;2023-08-06T06:15:48;15.05;;;9.75;;
71856;SDS011;63344;46.980;28.882;2023-08-06T06:18:41;15.10;;;9.13;;
71856;SDS011;63344;46.980;28.882;2023-08-06T06:21:35;12.95;;;8.63;;
71856;SDS011;63344;46.980;28.882;2023-08-06T06:24:33;17.02;;;8.77;;
71856;SDS011;63344;46.980;28.882;2023-08-06T06:27:31;18.08;;;11.00;;
71856;SDS011;63344;46.980;28.882;2023-08-06T06:30:09;22.52;;;10.93;;
71856;SDS011;63344;46.980;28.882;2023-08-06T06:32:53;18.23;;;9.07;;
71856;SDS011;63344;46.980;28.882;2023-08-06T06:35:36;10.15;;;7.60;;
71856;SDS011;63344;46.980;28.882;2023-08-06T06:38:21;11.50;;;7.85;;
71856;SDS011;63344;46.980;28.882;2023-08-06T06:41:25;10.02;;;8.45;;
71856;SDS011;63344;46.980;28.882;2023-08-06T06:44:11;11.55;;;9.50;;
71856;SDS011;63344;46.980;28.882;2023-08-06T06:50:50;14.38;;;8.43;;
71856;SDS011;63344;46.980;28.882;2023-08-06T06:53:36;12.77;;;7.95;;
71856;SDS011;63344;46.980;28.882;2023-08-06T06:56:21;13.70;;;8.57;;
71856;SDS011;63344;46.980;28.882;2023-08-06T06:58:58;10.73;;;7.88;;
71856;SDS011;63344;46.980;28.882;2023-08-06T07:01:44;13.43;;;8.68;;
71856;SDS011;63344;46.980;28.882;2023-08-06T07:04:52;13.45;;;8.40;;
71856;SDS011;63344;46.980;28.882;2023-08-06T07:07:52;11.35;;;8.50;;
71856;SDS011;63344;46.980;28.882;2023-08-06T07:10:47;9.15;;;7.25;;
71856;SDS011;63344;46.980;28.882;2023-08-06T07:13:45;13.48;;;8.00;;
71856;SDS011;63344;46.980;28.882;2023-08-06T07:16:44;12.18;;;7.15;;
71856;SDS011;63344;46.980;28.882;2023-08-06T07:19:30;13.38;;;7.40;;
71856;SDS011;63344;46.980;28.882;2023-08-06T07:22:30;10.55;;;7.38;;
71856;SDS011;63344;46.980;28.882;2023-08-06T07:25:28;10.25;;;6.03;;
71856;SDS011;63344;46.980;28.882;2023-08-06T07:28:21;10.65;;;6.75;;
71856;SDS011;63344;46.980;28.882;2023-08-06T07:31:03;9.80;;;7.97;;
71856;SDS011;63344;46.980;28.882;2023-08-06T07:33:53;8.07;;;6.07;;
71856;SDS011;63344;46.980;28.882;2023-08-06T07:36:40;11.05;;;6.68;;
71856;SDS011;63344;46.980;28.882;2023-08-06T07:39:26;15.45;;;7.32;;
71856;SDS011;63344;46.980;28.882;2023-08-06T07:42:23;9.85;;;6.43;;
71856;SDS011;63344;46.980;28.882;2023-08-06T07:45:34;10.23;;;6.63;;
71856;SDS011;63344;46.980;28.882;2023-08-06T07:48:22;9.73;;;6.95;;
71856;SDS011;63344;46.980;28.882;2023-08-06T07:51:08;11.77;;;6.68;;
71856;SDS011;63344;46.980;28.882;2023-08-06T07:53:51;11.45;;;6.38;;
71856;SDS011;63344;46.980;28.882;2023-08-06T07:56:55;7.35;;;6.55;;
71856;SDS011;63344;46.980;28.882;2023-08-06T07:59:42;6.88;;;5.97;;
71856;SDS011;63344;46.980;28.882;2023-08-06T08:02:51;8.65;;;6.63;;
71856;SDS011;63344;46.980;28.882;2023-08-06T08:06:07;9.07;;;5.60;;
71856;SDS011;63344;46.980;28.882;2023-08-06T08:08:57;11.80;;;6.78;;
71856;SDS011;63344;46.980;28.882;2023-08-06T08:11:47;7.60;;;5.10;;
71856;SDS011;63344;46.980;28.882;2023-08-06T08:14:38;10.95;;;5.75;;
71856;SDS011;63344;46.980;28.882;2023-08-06T08:17:20;8.07;;;5.03;;
71856;SDS011;63344;46.980;28.882;2023-08-06T08:20:10;10.48;;;5.15;;
71856;SDS011;63344;46.980;28.882;2023-08-06T08:23:05;7.70;;;5.38;;
71856;SDS011;63344;46.980;28.882;2023-08-06T08:25:55;48.60;;;20.48;;
71856;SDS011;63344;46.980;28.882;2023-08-06T08:28:47;8.15;;;5.05;;
71856;SDS011;63344;46.980;28.882;2023-08-06T08:31:43;20.05;;;8.25;;
71856;SDS011;63344;46.980;28.882;2023-08-06T08:34:46;7.88;;;5.55;;
71856;SDS011;63344;46.980;28.882;2023-08-06T08:37:42;6.88;;;5.25;;
71856;SDS011;63344;46.980;28.882;2023-08-06T08:40:32;5.63;;;4.95;;
71856;SDS011;63344;46.980;28.882;2023-08-06T08:43:23;9.02;;;5.55;;
71856;SDS011;63344;46.980;28.882;2023-08-06T08:46:19;21.08;;;10.02;;
71856;SDS011;63344;46.980;28.882;2023-08-06T08:49:12;6.05;;;4.25;;
71856;SDS011;63344;46.980;28.882;2023-08-06T08:52:05;7.90;;;4.15;;
71856;SDS011;63344;46.980;28.882;2023-08-06T08:55:18;6.28;;;4.22;;
71856;SDS011;63344;46.980;28.882;2023-08-06T08:58:10;7.07;;;4.13;;
71856;SDS011;63344;46.980;28.882;2023-08-06T09:01:02;9.70;;;5.05;;
71856;SDS011;63344;46.980;28.882;2023-08-06T09:03:48;4.68;;;3.83;;
71856;SDS011;63344;46.980;28.882;2023-08-06T09:06:53;5.25;;;3.88;;
71856;SDS011;63344;46.980;28.882;2023-08-06T09:09:49;6.40;;;4.28;;
71856;SDS011;63344;46.980;28.882;2023-08-06T09:12:46;5.97;;;3.53;;
71856;SDS011;63344;46.980;28.882;2023-08-06T09:15:48;4.68;;;4.03;;
71856;SDS011;63344;46.980;28.882;2023-08-06T09:19:00;6.47;;;4.03;;
71856;SDS011;63344;46.980;28.882;2023-08-06T09:21:59;5.63;;;3.45;;
71856;SDS011;63344;46.980;28.882;2023-08-06T09:27:29;4.45;;;4.03;;
71856;SDS011;63344;46.980;28.882;2023-08-06T09:33:43;4.22;;;3.53;;
71856;SDS011;63344;46.980;28.882;2023-08-06T09:36:41;8.75;;;4.07;;
71856;SDS011;63344;46.980;28.882;2023-08-06T09:39:30;5.07;;;3.65;;
71856;SDS011;63344;46.980;28.882;2023-08-06T09:42:36;4.35;;;2.97;;
71856;SDS011;63344;46.980;28.882;2023-08-06T09:45:13;15.35;;;3.33;;
71856;SDS011;63344;46.980;28.882;2023-08-06T09:48:12;8.02;;;3.85;;
71856;SDS011;63344;46.980;28.882;2023-08-06T09:50:58;3.65;;;2.83;;
71856;SDS011;63344;46.980;28.882;2023-08-06T09:53:32;5.78;;;5.15;;
71856;SDS011;63344;46.980;28.882;2023-08-06T09:56:20;4.95;;;2.58;;
71856;SDS011;63344;46.980;28.882;2023-08-06T09:59:09;5.45;;;2.55;;
71856;SDS011;63344;46.980;28.882;2023-08-06T10:01:50;6.82;;;3.95;;
71856;SDS011;63344;46.980;28.882;2023-08-06T10:04:45;4.78;;;2.88;;
71856;SDS011;63344;46.980;28.882;2023-08-06T10:07:29;6.80;;;3.83;;
71856;SDS011;63344;46.980;28.882;2023-08-06T10:10:11;5.50;;;4.05;;
71856;SDS011;63344;46.980;28.882;2023-08-06T10:12:59;5.20;;;2.95;;
71856;SDS011;63344;46.980;28.882;2023-08-06T10:19:28;3.75;;;2.28;;
71856;SDS011;63344;46.980;28.882;2023-08-06T10:25:23;2.90;;;2.40;;
71856;SDS011;63344;46.980;28.882;2023-08-06T10:28:37;7.22;;;2.83;;
71856;SDS011;63344;46.980;28.882;2023-08-06T10:34:54;3.03;;;2.67;;
71856;SDS011;63344;46.980;28.882;2023-08-06T10:41:37;5.60;;;2.95;;
71856;SDS011;63344;46.980;28.882;2023-08-06T10:47:44;4.35;;;2.20;;
71856;SDS011;63344;46.980;28.882;2023-08-06T10:50:29;5.80;;;2.40;;
71856;SDS011;63344;46.980;28.882;2023-08-06T10:53:36;4.15;;;2.45;;
71856;SDS011;63344;46.980;28.882;2023-08-06T10:56:39;5.00;;;2.35;;
71856;SDS011;63344;46.980;28.882;2023-08-06T11:02:59;4.00;;;2.13;;
71856;SDS011;63344;46.980;28.882;2023-08-06T11:06:39;5.45;;;1.60;;
71856;SDS011;63344;46.980;28.882;2023-08-06T11:09:39;3.67;;;2.05;;
71856;SDS011;63344;46.980;28.882;2023-08-06T11:12:51;3.13;;;2.13;;
71856;SDS011;63344;46.980;28.882;2023-08-06T11:15:44;2.47;;;2.05;;
71856;SDS011;63344;46.980;28.882;2023-08-06T11:18:45;2.60;;;1.77;;
71856;SDS011;63344;46.980;28.882;2023-08-06T11:21:52;6.15;;;3.05;;
71856;SDS011;63344;46.980;28.882;2023-08-06T11:24:41;3.67;;;2.15;;
71856;SDS011;63344;46.980;28.882;2023-08-06T11:27:30;3.75;;;2.30;;
71856;SDS011;63344;46.980;28.882;2023-08-06T11:30:48;8.25;;;2.47;;
71856;SDS011;63344;46.980;28.882;2023-08-06T11:33:50;7.10;;;3.15;;
71856;SDS011;63344;46.980;28.882;2023-08-06T11:37:03;5.63;;;2.88;;
71856;SDS011;63344;46.980;28.882;2023-08-06T11:39:56;2.40;;;1.92;;
71856;SDS011;63344;46.980;28.882;2023-08-06T11:42:50;4.40;;;2.65;;
71856;SDS011;63344;46.980;28.882;2023-08-06T11:45:51;6.55;;;3.97;;
71856;SDS011;63344;46.980;28.882;2023-08-06T11:51:44;4.10;;;2.03;;
71856;SDS011;63344;46.980;28.882;2023-08-06T11:54:43;3.55;;;2.80;;
71856;SDS011;63344;46.980;28.882;2023-08-06T11:58:11;3.95;;;2.63;;
71856;SDS011;63344;46.980;28.882;2023-08-06T12:01:00;3.50;;;2.80;;
71856;SDS011;63344;46.980;28.882;2023-08-06T12:03:59;3.45;;;2.58;;
71856;SDS011;63344;46.980;28.882;2023-08-06T12:06:54;5.45;;;2.22;;
71856;SDS011;63344;46.980;28.882;2023-08-06T12:09:52;2.72;;;2.17;;
71856;SDS011;63344;46.980;28.882;2023-08-06T12:12:49;2.67;;;2.47;;
71856;SDS011;63344;46.980;28.882;2023-08-06T12:15:54;4.10;;;3.05;;
71856;SDS011;63344;46.980;28.882;2023-08-06T12:18:36;3.75;;;2.30;;
71856;SDS011;63344;46.980;28.882;2023-08-06T12:21:25;4.35;;;2.60;;
71856;SDS011;63344;46.980;28.882;2023-08-06T12:24:01;4.75;;;2.65;;
71856;SDS011;63344;46.980;28.882;2023-08-06T12:26:50;3.90;;;2.67;;
71856;SDS011;63344;46.980;28.882;2023-08-06T12:29:42;3.28;;;2.20;;
71856;SDS011;63344;46.980;28.882;2023-08-06T12:32:25;4.10;;;2.63;;
71856;SDS011;63344;46.980;28.882;2023-08-06T12:35:14;5.57;;;2.78;;
71856;SDS011;63344;46.980;28.882;2023-08-06T12:38:02;4.78;;;2.90;;
71856;SDS011;63344;46.980;28.882;2023-08-06T12:40:47;4.55;;;3.28;;
71856;SDS011;63344;46.980;28.882;2023-08-06T12:43:31;5.90;;;3.08;;
71856;SDS011;63344;46.980;28.882;2023-08-06T12:46:26;5.13;;;2.60;;
71856;SDS011;63344;46.980;28.882;2023-08-06T12:49:36;4.88;;;2.78;;
71856;SDS011;63344;46.980;28.882;2023-08-06T12:52:27;4.18;;;3.08;;
71856;SDS011;63344;46.980;28.882;2023-08-06T12:55:14;4.40;;;2.72;;
71856;SDS011;63344;46.980;28.882;2023-08-06T12:58:11;3.30;;;3.00;;
71856;SDS011;63344;46.980;28.882;2023-08-06T13:00:52;4.57;;;3.15;;
71856;SDS011;63344;46.980;28.882;2023-08-06T13:03:43;9.85;;;2.83;;
71856;SDS011;63344;46.980;28.882;2023-08-06T13:06:35;5.40;;;3.30;;
71856;SDS011;63344;46.980;28.882;2023-08-06T13:09:25;7.65;;;3.72;;
71856;SDS011;63344;46.980;28.882;2023-08-06T13:12:09;4.70;;;3.10;;
71856;SDS011;63344;46.980;28.882;2023-08-06T13:15:11;3.90;;;3.15;;
71856;SDS011;63344;46.980;28.882;2023-08-06T13:18:06;8.35;;;4.22;;
71856;SDS011;63344;46.980;28.882;2023-08-06T13:20:38;5.07;;;3.30;;
71856;SDS011;63344;46.980;28.882;2023-08-06T13:23:26;6.82;;;3.45;;
71856;SDS011;63344;46.980;28.882;2023-08-06T13:26:10;11.52;;;3.78;;
71856;SDS011;63344;46.980;28.882;2023-08-06T13:29:09;6.40;;;3.28;;
71856;SDS011;63344;46.980;28.882;2023-08-06T13:32:13;7.05;;;3.78;;
71856;SDS011;63344;46.980;28.882;2023-08-06T13:34:56;5.65;;;3.85;;
71856;SDS011;63344;46.980;28.882;2023-08-06T13:37:51;4.85;;;3.13;;
71856;SDS011;63344;46.980;28.882;2023-08-06T13:40:34;3.30;;;2.85;;
71856;SDS011;63344;46.980;28.882;2023-08-06T13:43:21;6.30;;;2.72;;
71856;SDS011;63344;46.980;28.882;2023-08-06T13:45:57;9.38;;;4.05;;
71856;SDS011;63344;46.980;28.882;2023-08-06T13:48:40;3.85;;;2.92;;
71856;SDS011;63344;46.980;28.882;2023-08-06T13:51:28;4.65;;;3.65;;
71856;SDS011;63344;46.980;28.882;2023-08-06T13:56:59;6.75;;;3.20;;
71856;SDS011;63344;46.980;28.882;2023-08-06T14:00:40;7.38;;;2.95;;
71856;SDS011;63344;46.980;28.882;2023-08-06T14:03:38;4.30;;;3.20;;
71856;SDS011;63344;46.980;28.882;2023-08-06T14:09:54;9.68;;;3.45;;
71856;SDS011;63344;46.980;28.882;2023-08-06T14:13:02;6.88;;;3.75;;
71856;SDS011;63344;46.980;28.882;2023-08-06T14:15:58;8.10;;;3.20;;
71856;SDS011;63344;46.980;28.882;2023-08-06T14:18:57;3.95;;;3.05;;
71856;SDS011;63344;46.980;28.882;2023-08-06T14:21:34;4.22;;;2.97;;
71856;SDS011;63344;46.980;28.882;2023-08-06T14:24:25;6.20;;;3.65;;
71856;SDS011;63344;46.980;28.882;2023-08-06T14:27:02;3.95;;;2.92;;
71856;SDS011;63344;46.980;28.882;2023-08-06T14:30:07;5.05;;;2.97;;
71856;SDS011;63344;46.980;28.882;2023-08-06T14:32:56;7.15;;;3.38;;
71856;SDS011;63344;46.980;28.882;2023-08-06T14:35:45;5.07;;;4.25;;
71856;SDS011;63344;46.980;28.882;2023-08-06T14:38:34;5.95;;;2.90;;
71856;SDS011;63344;46.980;28.882;2023-08-06T14:44:45;3.78;;;2.72;;
71856;SDS011;63344;46.980;28.882;2023-08-06T14:47:23;4.80;;;3.95;;
71856;SDS011;63344;46.980;28.882;2023-08-06T14:50:09;5.07;;;3.47;;
71856;SDS011;63344;46.980;28.882;2023-08-06T14:53:06;6.90;;;4.00;;
71856;SDS011;63344;46.980;28.882;2023-08-06T14:55:52;4.20;;;3.15;;
71856;SDS011;63344;46.980;28.882;2023-08-06T14:58:44;5.32;;;3.90;;
71856;SDS011;63344;46.980;28.882;2023-08-06T15:01:27;5.85;;;3.35;;
71856;SDS011;63344;46.980;28.882;2023-08-06T15:04:44;5.82;;;3.13;;
71856;SDS011;63344;46.980;28.882;2023-08-06T15:07:32;5.25;;;3.10;;
71856;SDS011;63344;46.980;28.882;2023-08-06T15:13:44;3.92;;;2.85;;
71856;SDS011;63344;46.980;28.882;2023-08-06T15:16:27;6.10;;;3.03;;
71856;SDS011;63344;46.980;28.882;2023-08-06T15:19:34;3.25;;;2.95;;
71856;SDS011;63344;46.980;28.882;2023-08-06T15:22:16;5.22;;;3.65;;
71856;SDS011;63344;46.980;28.882;2023-08-06T15:25:16;6.47;;;2.88;;
71856;SDS011;63344;46.980;28.882;2023-08-06T15:28:08;4.28;;;2.72;;
71856;SDS011;63344;46.980;28.882;2023-08-06T15:31:03;4.32;;;2.55;;
71856;SDS011;63344;46.980;28.882;2023-08-06T15:34:10;4.55;;;2.65;;
71856;SDS011;63344;46.980;28.882;2023-08-06T15:36:54;5.03;;;3.22;;
71856;SDS011;63344;46.980;28.882;2023-08-06T15:43:16;4.78;;;3.28;;
71856;SDS011;63344;46.980;28.882;2023-08-06T15:46:37;4.85;;;3.95;;
71856;SDS011;63344;46.980;28.882;2023-08-06T15:49:23;5.72;;;3.63;;
71856;SDS011;63344;46.980;28.882;2023-08-06T15:52:14;4.63;;;3.53;;
71856;SDS011;63344;46.980;28.882;2023-08-06T15:55:10;5.10;;;3.08;;
71856;SDS011;63344;46.980;28.882;2023-08-06T15:58:03;7.03;;;3.67;;
71856;SDS011;63344;46.980;28.882;2023-08-06T16:00:57;5.75;;;3.78;;
71856;SDS011;63344;46.980;28.882;2023-08-06T16:03:47;4.30;;;3.72;;
71856;SDS011;63344;46.980;28.882;2023-08-06T16:06:38;5.35;;;2.90;;
71856;SDS011;63344;46.980;28.882;2023-08-06T16:09:32;6.95;;;2.90;;
71856;SDS011;63344;46.980;28.882;2023-08-06T16:12:20;8.15;;;2.80;;
71856;SDS011;63344;46.980;28.882;2023-08-06T16:15:04;3.95;;;2.67;;
71856;SDS011;63344;46.980;28.882;2023-08-06T16:18:01;4.68;;;2.72;;
71856;SDS011;63344;46.980;28.882;2023-08-06T16:21:17;12.18;;;3.88;;
71856;SDS011;63344;46.980;28.882;2023-08-06T16:24:21;6.47;;;2.50;;
71856;SDS011;63344;46.980;28.882;2023-08-06T16:27:03;5.05;;;3.15;;
71856;SDS011;63344;46.980;28.882;2023-08-06T16:29:46;8.50;;;3.17;;
71856;SDS011;63344;46.980;28.882;2023-08-06T16:32:28;7.15;;;3.45;;
71856;SDS011;63344;46.980;28.882;2023-08-06T16:38:33;7.10;;;4.03;;
71856;SDS011;63344;46.980;28.882;2023-08-06T16:41:15;10.52;;;3.95;;
71856;SDS011;63344;46.980;28.882;2023-08-06T16:44:30;5.63;;;3.55;;
71856;SDS011;63344;46.980;28.882;2023-08-06T16:47:24;10.52;;;4.65;;
71856;SDS011;63344;46.980;28.882;2023-08-06T16:50:11;7.57;;;4.45;;
71856;SDS011;63344;46.980;28.882;2023-08-06T16:53:05;9.55;;;5.03;;
71856;SDS011;63344;46.980;28.882;2023-08-06T16:56:23;6.85;;;4.07;;
71856;SDS011;63344;46.980;28.882;2023-08-06T16:59:20;11.52;;;4.53;;
71856;SDS011;63344;46.980;28.882;2023-08-06T17:02:07;9.23;;;4.30;;
71856;SDS011;63344;46.980;28.882;2023-08-06T17:08:56;8.50;;;4.43;;
71856;SDS011;63344;46.980;28.882;2023-08-06T17:12:02;5.47;;;4.07;;
71856;SDS011;63344;46.980;28.882;2023-08-06T17:18:47;10.50;;;4.60;;
71856;SDS011;63344;46.980;28.882;2023-08-06T17:21:49;9.15;;;4.50;;
71856;SDS011;63344;46.980;28.882;2023-08-06T17:24:24;5.50;;;4.53;;
71856;SDS011;63344;46.980;28.882;2023-08-06T17:27:28;8.55;;;4.20;;
71856;SDS011;63344;46.980;28.882;2023-08-06T17:30:29;7.60;;;4.97;;
71856;SDS011;63344;46.980;28.882;2023-08-06T17:33:21;5.00;;;4.35;;
71856;SDS011;63344;46.980;28.882;2023-08-06T17:38:58;9.00;;;4.78;;
71856;SDS011;63344;46.980;28.882;2023-08-06T17:41:33;5.80;;;4.22;;
71856;SDS011;63344;46.980;28.882;2023-08-06T17:44:18;10.18;;;4.80;;
71856;SDS011;63344;46.980;28.882;2023-08-06T17:47:01;13.07;;;4.78;;